Terminal Aerodrome Forecast
Issued by NWS Pueblo, CO

Home | Current Version | Previous Version | Text Only | Print | Product List | Glossary On
Versions: 1 2 3 4 5 6 7 8 9 10 11 12 13 14 15 16 17 18 19 20 21 22 23 24 25 26 27 28 29
000
FTUS45 KPUB 042320
TAFCOS
TAF
KCOS 042320Z 0500/0524 20015KT P6SM VCTS SCT080CB BKN120
      TEMPO 0500/0502 VRB15G30KT 6SM -TSRA BKN060CB
     FM050200 35010KT P6SM SCT100 BKN150
     FM051400 16010KT P6SM SCT080 BKN120
     FM052000 19015KT P6SM SCT070 BKN100=

USA.gov is the U.S. government's official web portal to all federal, state and local government web resources and services.